METAR Data
IDs: Format: Raw Decoded Include TAF

Data at: 1324 UTC 26 Feb 2021

LIBG 261250Z VRB03KT CAVOK 21/06 Q1025